Terminal Aerodrome Forecast
Issued by NWS

Home | Current Version | Previous Version | Text Only | Print | Product List | Glossary On
Versions: 1 2 3 4 5 6 7 8 9 10 11 12 13 14 15 16 17 18 19 20 21 22 23 24 25 26 27 28
000
FTUS45 KGJT 291121
TAFASE
TAF
KASE 291121Z 2912/3012 21004KT P6SM SKC
     FM291500 35004KT P6SM FEW250
     FM291800 32010KT P6SM FEW250
     FM292000 31014G24KT P6SM SCT200
     FM300300 21005KT P6SM SCT200=

USA.gov is the U.S. government's official web portal to all federal, state and local government web resources and services.